createdAt,value
2023-03-22T00:01:17.241Z,13.93
2023-03-22T00:03:47.637Z,14.00
2023-03-22T00:06:16.417Z,11.18
2023-03-22T00:08:44.460Z,13.70
2023-03-22T00:11:13.392Z,12.07
2023-03-22T00:13:43.017Z,16.40
2023-03-22T00:16:11.881Z,13.07
2023-03-22T00:18:39.923Z,14.45
2023-03-22T00:21:13.348Z,13.55
2023-03-22T00:23:41.546Z,13.75
2023-03-22T00:26:10.255Z,14.95
2023-03-22T00:28:38.693Z,12.25
2023-03-22T00:31:07.794Z,16.20
2023-03-22T00:33:35.692Z,15.23
2023-03-22T00:36:06.093Z,14.25
2023-03-22T00:38:42.919Z,15.52
2023-03-22T00:41:14.095Z,13.95
2023-03-22T00:43:42.490Z,13.52
2023-03-22T00:46:11.699Z,10.38
2023-03-22T00:48:39.903Z,14.27
2023-03-22T00:51:09.136Z,13.35
2023-03-22T00:53:41.092Z,14.00
2023-03-22T00:56:13.705Z,12.55
2023-03-22T00:58:41.703Z,11.90
2023-03-22T01:01:09.533Z,13.95
2023-03-22T01:03:38.755Z,13.23
2023-03-22T01:06:07.309Z,12.98
2023-03-22T01:08:39.172Z,12.88
2023-03-22T01:11:09.768Z,16.35
2023-03-22T01:13:38.509Z,15.32
2023-03-22T01:16:07.771Z,19.02
2023-03-22T01:18:36.433Z,16.92
2023-03-22T01:21:04.571Z,15.63
2023-03-22T01:23:32.700Z,20.35
2023-03-22T01:26:01.448Z,20.50
2023-03-22T01:28:30.821Z,19.75
2023-03-22T01:31:02.558Z,18.25
2023-03-22T01:33:30.401Z,23.08
2023-03-22T01:35:58.305Z,23.80
2023-03-22T01:38:26.200Z,25.13
2023-03-22T01:40:54.085Z,22.60
2023-03-22T01:43:22.278Z,21.60
2023-03-22T01:45:52.473Z,22.38
2023-03-22T01:48:25.917Z,20.30
2023-03-22T01:51:03.253Z,19.88
2023-03-22T01:53:35.718Z,18.33
2023-03-22T01:56:04.400Z,18.83
2023-03-22T01:58:34.816Z,17.20
2023-03-22T02:01:06.276Z,24.88
2023-03-22T02:03:42.250Z,17.10
2023-03-22T02:06:10.132Z,17.13
2023-03-22T02:08:40.573Z,18.15
2023-03-22T02:11:13.498Z,19.38
2023-03-22T02:13:56.988Z,19.20
2023-03-22T02:16:36.369Z,23.80
2023-03-22T02:19:31.743Z,18.95
2023-03-22T02:22:30.390Z,19.02
2023-03-22T02:25:27.665Z,15.95
2023-03-22T02:31:03.502Z,19.60
2023-03-22T02:33:50.413Z,16.42
2023-03-22T02:36:34.757Z,16.20
2023-03-22T02:39:17.784Z,16.55
2023-03-22T02:42:00.762Z,14.77
2023-03-22T02:44:39.663Z,15.32
2023-03-22T02:47:14.478Z,15.68
2023-03-22T02:49:49.430Z,16.83
2023-03-22T02:52:24.937Z,16.25
2023-03-22T02:54:58.676Z,14.50
2023-03-22T02:57:32.121Z,18.67
2023-03-22T03:00:02.466Z,16.88
2023-03-22T03:02:31.837Z,16.30
2023-03-22T03:05:00.798Z,15.48
2023-03-22T03:07:31.346Z,18.35
2023-03-22T03:10:01.208Z,19.55
2023-03-22T03:12:30.304Z,14.52
2023-03-22T03:14:58.504Z,15.13
2023-03-22T03:17:42.605Z,15.70
2023-03-22T03:20:24.235Z,13.80
2023-03-22T03:23:07.321Z,13.90
2023-03-22T03:25:43.355Z,12.73
2023-03-22T03:28:16.164Z,13.95
2023-03-22T03:30:51.430Z,11.95
2023-03-22T03:33:23.403Z,13.90
2023-03-22T03:35:56.275Z,15.68
2023-03-22T03:38:28.578Z,13.88
2023-03-22T03:41:01.809Z,13.27
2023-03-22T03:43:29.694Z,12.18
2023-03-22T03:45:58.401Z,11.77
2023-03-22T03:48:30.165Z,13.00
2023-03-22T03:51:00.503Z,11.70
2023-03-22T03:53:28.975Z,12.73
2023-03-22T03:55:58.257Z,11.60
2023-03-22T03:58:26.193Z,14.48
2023-03-22T04:00:54.339Z,12.82
2023-03-22T04:03:22.172Z,9.98
2023-03-22T04:05:50.018Z,11.43
2023-03-22T04:08:17.961Z,9.60
2023-03-22T04:10:50.692Z,9.82
2023-03-22T04:13:21.533Z,9.30
2023-03-22T04:15:53.144Z,12.68
2023-03-22T04:18:21.288Z,12.50
2023-03-22T04:20:49.560Z,11.43
2023-03-22T04:23:17.437Z,13.07
2023-03-22T04:25:50.065Z,8.93
2023-03-22T04:28:20.408Z,10.50
2023-03-22T04:30:51.066Z,11.55
2023-03-22T04:33:19.176Z,12.95
2023-03-22T04:35:47.278Z,8.60
2023-03-22T04:38:15.516Z,9.52
2023-03-22T04:40:46.578Z,12.27
2023-03-22T04:43:15.754Z,11.60
2023-03-22T04:45:46.199Z,10.55
2023-03-22T04:48:14.172Z,8.18
2023-03-22T04:50:42.205Z,9.70
2023-03-22T04:53:10.082Z,14.57
2023-03-22T04:55:37.932Z,11.57
2023-03-22T04:58:05.711Z,9.02
2023-03-22T05:00:33.675Z,9.82
2023-03-22T05:03:04.111Z,9.68
2023-03-22T05:05:32.003Z,9.02
2023-03-22T05:07:59.827Z,9.77
2023-03-22T05:10:27.595Z,9.93
2023-03-22T05:12:55.397Z,8.95
2023-03-22T05:15:23.350Z,10.00
2023-03-22T05:17:51.222Z,8.82
2023-03-22T05:20:20.427Z,9.40
2023-03-22T05:22:50.595Z,9.52
2023-03-22T05:25:18.583Z,8.90
2023-03-22T05:27:46.490Z,9.43
2023-03-22T05:30:15.591Z,10.25
2023-03-22T05:32:44.110Z,10.93
2023-03-22T05:35:12.148Z,10.05
2023-03-22T05:37:41.645Z,12.45
2023-03-22T05:40:10.897Z,8.93
2023-03-22T05:42:38.701Z,11.23
2023-03-22T05:45:07.483Z,9.45
2023-03-22T05:47:39.582Z,9.10
2023-03-22T05:50:09.176Z,9.73
2023-03-22T05:52:37.095Z,10.95
2023-03-22T05:55:07.553Z,7.35
2023-03-22T05:57:35.445Z,9.13
2023-03-22T06:00:06.372Z,6.97
2023-03-22T06:02:34.232Z,8.60
2023-03-22T06:05:02.146Z,6.30
2023-03-22T06:07:29.895Z,8.75
2023-03-22T06:09:57.827Z,6.10
2023-03-22T06:12:29.609Z,7.80
2023-03-22T06:14:57.950Z,5.25
2023-03-22T06:17:25.806Z,6.93
2023-03-22T06:19:54.423Z,6.53
2023-03-22T06:22:23.537Z,5.55
2023-03-22T06:24:51.343Z,5.45
2023-03-22T06:27:19.864Z,5.78
2023-03-22T06:29:51.021Z,7.03
2023-03-22T06:32:19.091Z,7.57
2023-03-22T06:34:47.032Z,6.68
2023-03-22T06:37:18.107Z,7.45
2023-03-22T06:39:46.163Z,6.35
2023-03-22T06:42:17.308Z,7.20
2023-03-22T06:44:45.238Z,6.90
2023-03-22T06:47:20.056Z,7.38
2023-03-22T06:49:47.790Z,7.32
2023-03-22T06:52:16.359Z,7.90
2023-03-22T06:54:44.490Z,8.05
2023-03-22T06:57:13.624Z,9.85
2023-03-22T06:59:42.085Z,7.43
2023-03-22T07:02:14.260Z,7.82
2023-03-22T07:04:43.951Z,7.85
2023-03-22T07:07:13.071Z,8.52
2023-03-22T07:09:41.591Z,9.70
2023-03-22T07:12:12.108Z,8.02
2023-03-22T07:14:43.549Z,8.68
2023-03-22T07:17:16.726Z,7.95
2023-03-22T07:19:45.913Z,9.00
2023-03-22T07:22:16.110Z,7.82
2023-03-22T07:24:55.729Z,7.60
2023-03-22T07:27:25.049Z,14.50
2023-03-22T07:29:52.839Z,8.45
2023-03-22T07:32:21.939Z,12.07
2023-03-22T07:34:51.185Z,8.45
2023-03-22T07:37:26.080Z,9.27
2023-03-22T07:39:53.982Z,10.48
2023-03-22T07:42:22.436Z,10.60
2023-03-22T07:44:51.148Z,12.40
2023-03-22T07:47:30.632Z,9.55
2023-03-22T07:50:04.045Z,12.55
2023-03-22T07:52:31.897Z,9.43
2023-03-22T07:54:59.646Z,11.07
2023-03-22T07:57:27.462Z,9.35
2023-03-22T07:59:56.601Z,12.27
2023-03-22T08:02:24.771Z,11.52
2023-03-22T08:04:56.413Z,9.70
2023-03-22T08:07:26.069Z,11.63
2023-03-22T08:09:54.011Z,10.88
2023-03-22T08:12:33.005Z,12.13
2023-03-22T08:15:01.670Z,11.65
2023-03-22T08:17:30.411Z,12.38
2023-03-22T08:19:58.307Z,14.65
2023-03-22T08:22:32.560Z,12.18
2023-03-22T08:25:00.421Z,9.70
2023-03-22T08:27:28.436Z,10.43
2023-03-22T08:29:56.535Z,16.13
2023-03-22T08:32:28.366Z,10.38
2023-03-22T08:34:56.224Z,10.57
2023-03-22T08:37:24.429Z,11.30
2023-03-22T08:39:53.670Z,12.68
2023-03-22T08:42:24.880Z,10.05
2023-03-22T08:44:53.107Z,12.40
2023-03-22T08:47:25.705Z,12.02
2023-03-22T08:49:53.611Z,10.93
2023-03-22T08:52:24.132Z,12.93
2023-03-22T08:54:54.516Z,14.50
2023-03-22T08:57:24.315Z,12.10
2023-03-22T08:59:52.368Z,13.20
2023-03-22T09:02:27.654Z,13.00
2023-03-22T09:04:55.767Z,10.40
2023-03-22T09:07:24.353Z,13.80
2023-03-22T09:09:53.758Z,15.05
2023-03-22T09:12:25.176Z,16.48
2023-03-22T09:14:53.826Z,15.55
2023-03-22T09:17:27.223Z,18.48
2023-03-22T09:20:09.446Z,14.88
2023-03-22T09:22:39.660Z,15.23
2023-03-22T09:25:12.531Z,16.05
2023-03-22T09:27:40.951Z,14.60
2023-03-22T09:30:09.768Z,13.50
2023-03-22T09:32:38.666Z,14.75
2023-03-22T09:35:07.216Z,13.95
2023-03-22T09:37:35.120Z,15.23
2023-03-22T09:40:05.454Z,13.45
2023-03-22T09:42:39.623Z,11.15
2023-03-22T09:45:13.449Z,11.25
2023-03-22T09:47:48.151Z,15.30
2023-03-22T09:50:20.849Z,11.38
2023-03-22T09:52:49.598Z,11.25
2023-03-22T09:55:23.989Z,9.60
2023-03-22T09:58:03.783Z,8.63
2023-03-22T10:00:41.585Z,7.90
2023-03-22T10:03:22.371Z,9.05
2023-03-22T10:05:54.065Z,12.27
2023-03-22T10:08:43.198Z,8.85
2023-03-22T10:11:23.080Z,5.60
2023-03-22T10:14:01.448Z,7.28
2023-03-22T10:16:33.163Z,6.63
2023-03-22T10:19:06.408Z,7.07
2023-03-22T10:21:34.763Z,5.20
2023-03-22T10:24:05.709Z,6.43
2023-03-22T10:26:37.984Z,5.15
2023-03-22T10:29:14.506Z,5.70
2023-03-22T10:31:45.994Z,5.18
2023-03-22T10:34:21.026Z,6.03
2023-03-22T10:36:51.194Z,6.82
2023-03-22T10:39:28.368Z,8.52
2023-03-22T10:41:58.218Z,6.40
2023-03-22T10:44:30.760Z,5.65
2023-03-22T10:47:07.420Z,8.32
2023-03-22T10:49:41.040Z,5.88
2023-03-22T10:52:25.092Z,4.85
2023-03-22T10:54:53.090Z,6.07
2023-03-22T10:57:24.177Z,4.93
2023-03-22T10:59:57.584Z,4.05
2023-03-22T11:02:43.743Z,4.82
2023-03-22T11:05:49.557Z,4.00
2023-03-22T11:08:19.448Z,3.60
2023-03-22T11:10:51.626Z,5.63
2023-03-22T11:13:24.340Z,5.53
2023-03-22T11:16:00.013Z,4.45
2023-03-22T11:18:32.533Z,5.75
2023-03-22T11:21:07.698Z,3.92
2023-03-22T11:23:38.728Z,3.03
2023-03-22T11:26:10.059Z,3.60
2023-03-22T11:28:44.314Z,6.63
2023-03-22T11:31:15.920Z,3.08
2023-03-22T11:33:56.272Z,3.17
2023-03-22T11:36:24.616Z,2.42
2023-03-22T11:38:58.635Z,2.70
2023-03-22T11:41:28.651Z,3.00
2023-03-22T11:43:59.412Z,2.35
2023-03-22T11:46:30.112Z,2.10
2023-03-22T11:49:01.284Z,4.25
2023-03-22T11:51:33.424Z,4.43
2023-03-22T11:54:09.199Z,3.78
2023-03-22T11:56:42.657Z,4.80
2023-03-22T11:59:16.662Z,4.03
2023-03-22T12:01:50.192Z,4.82
2023-03-22T12:04:22.535Z,3.92
2023-03-22T12:06:56.523Z,5.15
2023-03-22T12:09:29.587Z,5.78
2023-03-22T12:12:00.510Z,4.07
2023-03-22T12:14:34.096Z,5.22
2023-03-22T12:17:09.067Z,5.97
2023-03-22T12:19:51.214Z,5.90
2023-03-22T12:22:23.896Z,6.43
2023-03-22T12:24:51.789Z,7.13
2023-03-22T12:27:24.152Z,5.85
2023-03-22T12:29:57.959Z,5.20
2023-03-22T12:32:30.520Z,4.93
2023-03-22T12:35:15.952Z,6.55
2023-03-22T12:37:47.360Z,4.95
2023-03-22T12:40:22.824Z,5.53
2023-03-22T12:43:00.364Z,4.95
2023-03-22T12:45:33.264Z,4.40
2023-03-22T12:48:08.213Z,6.40
2023-03-22T12:50:43.415Z,4.78
2023-03-22T12:53:16.171Z,4.20
2023-03-22T12:55:46.604Z,4.68
2023-03-22T12:58:17.623Z,4.65
2023-03-22T13:00:49.491Z,6.65
2023-03-22T13:03:27.709Z,4.68
2023-03-22T13:06:05.687Z,4.97
2023-03-22T13:09:19.100Z,5.03
2023-03-22T13:11:49.382Z,5.50
2023-03-22T13:15:03.346Z,4.13
2023-03-22T13:17:43.873Z,5.88
2023-03-22T13:20:30.866Z,4.00
2023-03-22T13:23:28.632Z,3.35
2023-03-22T13:26:02.372Z,5.25
2023-03-22T13:28:37.017Z,7.85
2023-03-22T13:31:05.709Z,4.47
2023-03-22T13:33:35.701Z,3.55
2023-03-22T13:36:09.206Z,4.05
2023-03-22T13:38:42.336Z,4.20
2023-03-22T13:41:22.214Z,3.80
2023-03-22T13:43:53.101Z,3.17
2023-03-22T13:46:45.610Z,3.20
2023-03-22T13:49:21.680Z,3.72
2023-03-22T13:51:52.772Z,3.60
2023-03-22T13:54:24.892Z,5.20
2023-03-22T13:57:00.256Z,3.53
2023-03-22T13:59:33.895Z,3.72
2023-03-22T14:02:06.031Z,2.47
2023-03-22T14:04:40.742Z,2.58
2023-03-22T14:07:22.319Z,3.45
2023-03-22T14:09:52.588Z,3.75
2023-03-22T14:12:23.508Z,2.67
2023-03-22T14:14:56.111Z,3.03
2023-03-22T14:17:35.128Z,3.72
2023-03-22T14:20:10.579Z,3.13
